createdAt,value
2022-08-09T00:00:00.417Z,0.00
2022-08-09T00:00:57.269Z,0.00
2022-08-09T00:01:57.968Z,0.00
2022-08-09T00:02:58.297Z,0.00
2022-08-09T00:04:06.346Z,0.00
2022-08-09T00:05:03.437Z,0.00
2022-08-09T00:06:19.655Z,0.00
2022-08-09T00:06:59.346Z,0.00
2022-08-09T00:08:00.063Z,0.00
2022-08-09T00:09:00.502Z,0.00
2022-08-09T00:10:01.722Z,0.00
2022-08-09T00:11:05.813Z,0.00
2022-08-09T00:12:03.473Z,0.00
2022-08-09T00:13:01.659Z,0.00
2022-08-09T00:14:01.788Z,0.00
2022-08-09T00:15:06.967Z,0.00
2022-08-09T00:16:02.399Z,0.00
2022-08-09T00:17:02.037Z,0.00
2022-08-09T00:18:04.686Z,0.00
2022-08-09T00:19:02.779Z,0.00
2022-08-09T00:20:03.584Z,0.00
2022-08-09T00:21:03.670Z,0.00
2022-08-09T00:22:04.293Z,0.00
2022-08-09T00:23:08.353Z,0.00
2022-08-09T00:24:04.871Z,0.00
2022-08-09T00:25:08.421Z,0.00
2022-08-09T00:26:05.531Z,0.00
2022-08-09T00:27:06.296Z,0.00
2022-08-09T00:28:06.419Z,0.00
2022-08-09T00:29:12.174Z,0.00
2022-08-09T00:30:23.566Z,0.00
2022-08-09T00:30:25.983Z,0.00
2022-08-09T00:31:58.111Z,0.00
2022-08-09T00:32:25.679Z,0.00
2022-08-09T00:33:16.853Z,0.00
2022-08-09T00:34:19.336Z,0.00
2022-08-09T00:35:17.806Z,0.00
2022-08-09T00:36:19.132Z,0.00
2022-08-09T00:37:18.334Z,0.00
2022-08-09T00:38:21.441Z,0.00
2022-08-09T00:40:13.967Z,0.00
2022-08-09T00:40:19.856Z,0.00
2022-08-09T00:44:16.790Z,0.00
2022-08-09T00:44:26.076Z,0.00
2022-08-09T00:44:27.112Z,0.00
2022-08-09T00:44:27.351Z,0.00
2022-08-09T00:45:21.716Z,0.00
2022-08-09T00:46:55.226Z,0.00
2022-08-09T00:47:24.947Z,0.00
2022-08-09T00:48:22.979Z,0.00
2022-08-09T00:49:23.295Z,0.00
2022-08-09T00:50:25.215Z,0.00
2022-08-09T00:51:24.559Z,0.00
2022-08-09T00:52:30.225Z,0.00
2022-08-09T00:53:25.289Z,0.00
2022-08-09T00:54:35.159Z,0.00
2022-08-09T00:56:04.120Z,0.00
2022-08-09T00:56:26.192Z,0.00
2022-08-09T00:57:34.874Z,0.00
2022-08-09T00:58:27.809Z,0.00
2022-08-09T00:59:41.253Z,0.00
2022-08-09T00:59:41.649Z,0.00
2022-08-09T01:00:35.852Z,0.00
2022-08-09T01:01:44.669Z,0.00
2022-08-09T01:02:36.822Z,0.00
2022-08-09T01:03:40.673Z,0.00
2022-08-09T01:04:37.835Z,0.00
2022-08-09T01:05:50.672Z,0.00
2022-08-09T01:06:54.215Z,0.00
2022-08-09T01:08:00.639Z,0.00
2022-08-09T01:08:38.870Z,0.00
2022-08-09T01:09:39.149Z,0.00
2022-08-09T01:10:39.193Z,0.00
2022-08-09T01:11:40.150Z,0.00
2022-08-09T01:12:40.292Z,0.00
2022-08-09T01:13:41.934Z,0.00
2022-08-09T01:14:40.364Z,0.00
2022-08-09T01:15:52.256Z,0.00
2022-08-09T01:16:40.869Z,0.00
2022-08-09T01:17:40.944Z,0.00
2022-08-09T01:18:41.006Z,0.00
2022-08-09T01:19:51.640Z,0.00
2022-08-09T01:20:41.393Z,0.00
2022-08-09T01:21:45.027Z,0.00
2022-08-09T01:22:41.643Z,0.00
2022-08-09T01:24:03.632Z,0.00
2022-08-09T01:24:44.049Z,0.00
2022-08-09T01:25:49.024Z,0.00
2022-08-09T01:26:43.778Z,0.00
2022-08-09T01:27:44.678Z,0.00
2022-08-09T01:28:45.465Z,0.00
2022-08-09T01:29:55.730Z,0.00
2022-08-09T01:30:52.119Z,0.00
2022-08-09T01:30:54.853Z,0.00
2022-08-09T01:32:29.924Z,0.00
2022-08-09T01:32:55.807Z,0.00
2022-08-09T01:33:55.732Z,0.00
2022-08-09T01:34:57.638Z,0.00
2022-08-09T01:35:59.197Z,0.00
2022-08-09T01:36:58.223Z,0.00
2022-08-09T01:38:07.935Z,0.00
2022-08-09T01:38:59.381Z,0.00
2022-08-09T01:39:59.514Z,0.00
2022-08-09T01:41:02.941Z,0.00
2022-08-09T01:42:04.086Z,0.00
2022-08-09T01:43:01.598Z,0.00
2022-08-09T01:44:01.818Z,0.00
2022-08-09T01:45:03.508Z,0.00
2022-08-09T01:46:02.741Z,0.00
2022-08-09T01:47:03.327Z,0.00
2022-08-09T01:48:05.892Z,0.00
2022-08-09T01:49:09.521Z,0.00
2022-08-09T01:50:06.495Z,0.00
2022-08-09T01:51:04.362Z,0.00
2022-08-09T01:52:07.540Z,0.00
2022-08-09T01:53:19.349Z,0.00
2022-08-09T01:54:06.056Z,0.00
2022-08-09T01:55:08.045Z,0.00
2022-08-09T01:56:07.239Z,0.00
2022-08-09T01:57:08.086Z,0.00
2022-08-09T01:58:07.917Z,0.00
2022-08-09T01:59:08.752Z,0.00
2022-08-09T01:59:18.568Z,0.00
2022-08-09T02:00:35.939Z,0.00
2022-08-09T02:01:19.618Z,0.00
2022-08-09T02:02:19.811Z,0.00
2022-08-09T02:03:19.953Z,0.00
2022-08-09T02:04:21.524Z,0.00
2022-08-09T02:05:20.830Z,0.00
2022-08-09T02:06:21.745Z,0.00
2022-08-09T02:08:39.063Z,0.00
2022-08-09T02:08:39.296Z,0.00
2022-08-09T02:09:23.094Z,0.00
2022-08-09T02:10:29.687Z,0.00
2022-08-09T02:11:24.084Z,0.00
2022-08-09T02:12:25.515Z,0.00
2022-08-09T02:13:26.226Z,0.00
2022-08-09T02:14:26.677Z,0.00
2022-08-09T02:15:26.977Z,0.00
2022-08-09T02:16:33.857Z,0.00
2022-08-09T02:17:59.499Z,0.00
2022-08-09T02:18:27.663Z,0.00
2022-08-09T02:19:34.933Z,0.00
2022-08-09T02:20:32.851Z,0.00
2022-08-09T02:21:29.289Z,0.00
2022-08-09T02:22:31.717Z,0.00
2022-08-09T02:23:31.868Z,0.00
2022-08-09T02:24:30.784Z,0.00
2022-08-09T02:25:31.466Z,0.00
2022-08-09T02:26:32.319Z,0.00
2022-08-09T02:27:58.227Z,0.00
2022-08-09T02:28:32.780Z,0.00
2022-08-09T02:28:41.368Z,0.00
2022-08-09T02:29:41.646Z,0.00
2022-08-09T02:30:41.744Z,0.00
2022-08-09T02:31:42.258Z,0.00
2022-08-09T02:32:43.068Z,0.00
2022-08-09T02:34:06.789Z,0.00
2022-08-09T02:34:51.740Z,0.00
2022-08-09T02:36:02.072Z,0.00
2022-08-09T02:36:44.549Z,0.00
2022-08-09T02:37:46.437Z,0.00
2022-08-09T02:38:47.814Z,0.00
2022-08-09T02:39:49.876Z,0.00
2022-08-09T02:40:46.469Z,0.00
2022-08-09T02:41:46.679Z,0.00
2022-08-09T02:42:51.248Z,0.00
2022-08-09T02:43:54.859Z,0.00
2022-08-09T02:44:47.844Z,0.00
2022-08-09T02:45:49.197Z,0.00
2022-08-09T02:46:52.305Z,0.00
2022-08-09T02:47:58.853Z,0.00
2022-08-09T02:48:51.093Z,0.00
2022-08-09T02:50:01.255Z,0.00
2022-08-09T02:50:53.083Z,0.00
2022-08-09T02:51:50.216Z,0.00
2022-08-09T02:52:55.303Z,0.00
2022-08-09T02:53:59.697Z,0.00
2022-08-09T02:54:54.819Z,0.00
2022-08-09T02:55:58.403Z,0.00
2022-08-09T02:56:53.995Z,0.00
2022-08-09T02:57:02.112Z,0.00
2022-08-09T02:58:32.815Z,0.00
2022-08-09T02:59:03.376Z,0.00
2022-08-09T03:00:24.779Z,0.00
2022-08-09T03:01:04.396Z,0.00
2022-08-09T03:02:06.810Z,0.00
2022-08-09T03:03:04.455Z,0.00
2022-08-09T03:04:18.425Z,0.00
2022-08-09T03:05:05.735Z,0.00
2022-08-09T03:06:05.929Z,0.00
2022-08-09T03:07:12.399Z,0.05
2022-08-09T03:08:06.662Z,0.05
2022-08-09T03:09:06.963Z,0.05
2022-08-09T03:10:08.054Z,0.05
2022-08-09T03:11:10.226Z,0.05
2022-08-09T03:12:11.323Z,0.05
2022-08-09T03:13:08.607Z,0.05
2022-08-09T03:14:08.449Z,0.05
2022-08-09T03:15:09.160Z,0.05
2022-08-09T03:16:09.922Z,0.09
2022-08-09T03:17:20.495Z,0.09
2022-08-09T03:18:10.837Z,0.14
2022-08-09T03:19:14.348Z,0.14
2022-08-09T03:20:11.859Z,0.14
2022-08-09T03:21:12.146Z,0.14
2022-08-09T03:22:19.759Z,0.22
2022-08-09T03:23:15.139Z,0.27
2022-08-09T03:24:14.095Z,0.27
2022-08-09T03:25:26.487Z,0.31
2022-08-09T03:26:15.089Z,0.36
2022-08-09T03:27:17.201Z,0.45
2022-08-09T03:28:16.368Z,0.54
2022-08-09T03:28:28.099Z,0.58
2022-08-09T03:29:28.631Z,0.68
2022-08-09T03:30:33.499Z,0.76
2022-08-09T03:31:29.010Z,0.86
2022-08-09T03:32:29.849Z,1.03
2022-08-09T03:33:53.281Z,1.17
2022-08-09T03:34:30.905Z,1.44
2022-08-09T03:36:11.465Z,1.66
2022-08-09T03:36:34.890Z,1.98
2022-08-09T03:37:54.377Z,2.34
2022-08-09T03:38:33.551Z,2.74
2022-08-09T03:39:37.792Z,3.19
2022-08-09T03:40:34.838Z,3.78
2022-08-09T03:41:48.318Z,4.45
2022-08-09T03:42:35.099Z,5.26
2022-08-09T03:43:36.567Z,6.26
2022-08-09T03:44:35.635Z,7.38
2022-08-09T03:46:04.087Z,8.77
2022-08-09T03:46:36.083Z,10.26
2022-08-09T03:47:41.859Z,12.06
2022-08-09T03:48:36.643Z,14.13
2022-08-09T03:49:36.961Z,16.47
2022-08-09T03:50:37.725Z,19.35
2022-08-09T03:51:43.960Z,22.32
2022-08-09T03:52:38.612Z,25.92
2022-08-09T03:53:38.668Z,29.88
2022-08-09T03:54:39.005Z,34.56
2022-08-09T03:55:42.443Z,39.60
2022-08-09T03:56:41.246Z,45.36
2022-08-09T03:57:44.481Z,51.48
2022-08-09T03:58:41.242Z,58.32
2022-08-09T03:59:53.005Z,65.52
2022-08-09T04:00:42.129Z,73.80
2022-08-09T04:00:50.795Z,75.24
2022-08-09T04:01:51.305Z,84.60
2022-08-09T04:02:52.859Z,93.60
2022-08-09T04:04:01.221Z,104.40
2022-08-09T04:04:52.669Z,115.92
2022-08-09T04:05:52.913Z,127.44
2022-08-09T04:06:53.701Z,141.12
2022-08-09T04:07:57.318Z,154.80
2022-08-09T04:08:55.356Z,169.20
2022-08-09T04:09:56.836Z,184.32
2022-08-09T04:11:01.323Z,200.16
2022-08-09T04:11:56.943Z,217.44
2022-08-09T04:12:57.770Z,234.72
2022-08-09T04:14:53.021Z,253.44
2022-08-09T04:15:02.075Z,272.16
2022-08-09T04:16:20.293Z,292.32
2022-08-09T04:16:58.681Z,312.48
2022-08-09T04:17:59.689Z,334.08
2022-08-09T04:18:59.763Z,355.68
2022-08-09T04:20:02.618Z,377.28
2022-08-09T04:20:59.716Z,400.32
2022-08-09T04:21:59.845Z,423.36
2022-08-09T04:23:02.047Z,446.40
2022-08-09T04:24:00.433Z,472.32
2022-08-09T04:25:03.049Z,495.36
2022-08-09T04:26:01.462Z,518.40
2022-08-09T04:27:01.721Z,544.32
2022-08-09T04:28:03.757Z,570.24
2022-08-09T04:28:14.955Z,573.12
2022-08-09T04:29:15.261Z,599.04
2022-08-09T04:30:15.427Z,624.96
2022-08-09T04:31:17.012Z,650.88
2022-08-09T04:32:16.513Z,676.80
2022-08-09T04:33:16.553Z,702.72
2022-08-09T04:34:19.022Z,725.76
2022-08-09T04:35:17.852Z,754.56
2022-08-09T04:36:19.364Z,777.60
2022-08-09T04:37:18.518Z,806.40
2022-08-09T04:38:18.635Z,829.44
2022-08-09T04:39:19.144Z,852.48
2022-08-09T04:40:35.903Z,881.28
2022-08-09T04:41:23.675Z,904.32
2022-08-09T04:42:21.244Z,927.36
2022-08-09T04:43:20.386Z,956.16
2022-08-09T04:44:20.947Z,979.20
2022-08-09T04:45:22.799Z,1002.24
2022-08-09T04:46:56.833Z,1105.92
2022-08-09T04:47:22.350Z,1123.20
2022-08-09T04:48:33.363Z,1152.00
2022-08-09T04:49:40.149Z,1180.80
2022-08-09T04:50:24.040Z,1209.60
2022-08-09T04:51:24.111Z,1232.64
2022-08-09T04:52:26.378Z,1261.44
2022-08-09T04:53:24.931Z,1284.48
2022-08-09T04:54:25.328Z,1313.28
2022-08-09T04:55:27.089Z,1342.08
2022-08-09T04:56:26.445Z,1365.12
2022-08-09T04:56:35.129Z,1370.88
2022-08-09T04:57:59.411Z,1399.68
2022-08-09T04:58:36.100Z,1422.72
2022-08-09T04:59:37.204Z,1451.52
2022-08-09T05:00:37.444Z,1474.56
2022-08-09T05:01:38.070Z,1497.60
2022-08-09T05:02:38.436Z,1532.16
2022-08-09T05:03:42.838Z,1555.20
2022-08-09T05:04:38.660Z,1578.24
2022-08-09T05:05:52.250Z,1612.80
2022-08-09T05:06:38.897Z,1635.84
2022-08-09T05:07:39.040Z,1658.88
2022-08-09T05:08:39.295Z,1693.44
2022-08-09T05:09:48.764Z,1716.48
2022-08-09T05:10:39.777Z,1992.96
2022-08-09T05:11:40.049Z,3110.40
2022-08-09T05:12:40.391Z,4331.52
2022-08-09T05:13:41.769Z,4654.08
2022-08-09T05:14:41.392Z,4769.28
2022-08-09T05:15:43.190Z,4792.32
2022-08-09T05:16:43.502Z,4815.36
2022-08-09T05:18:38.008Z,4884.48
2022-08-09T05:18:58.662Z,4999.68
2022-08-09T05:19:45.876Z,5137.92
2022-08-09T05:20:42.527Z,5322.24
2022-08-09T05:21:46.963Z,5483.52
2022-08-09T05:23:53.934Z,5621.76
2022-08-09T05:23:55.003Z,5575.68
2022-08-09T05:24:47.684Z,5621.76
2022-08-09T05:25:46.054Z,5667.84
2022-08-09T05:25:56.873Z,5667.84
2022-08-09T05:26:56.457Z,5667.84
2022-08-09T05:27:57.686Z,5713.92
2022-08-09T05:28:58.661Z,5875.20
2022-08-09T05:29:57.849Z,6128.64
2022-08-09T05:30:58.273Z,6359.04
2022-08-09T05:31:59.165Z,6359.04
2022-08-09T05:32:59.149Z,6128.64
2022-08-09T05:34:00.612Z,6082.56
2022-08-09T05:35:00.789Z,6082.56
2022-08-09T05:36:00.913Z,6174.72
2022-08-09T05:37:01.839Z,6405.12
2022-08-09T05:38:00.715Z,6681.60
2022-08-09T05:39:01.282Z,6958.08
2022-08-09T05:40:01.368Z,6958.08
2022-08-09T05:41:01.912Z,6865.92
2022-08-09T05:42:04.695Z,6912.00
2022-08-09T05:43:02.035Z,7188.48
2022-08-09T05:44:02.152Z,7372.80
2022-08-09T05:45:02.613Z,7464.96
2022-08-09T05:46:03.985Z,7464.96
2022-08-09T05:47:05.044Z,7280.64
2022-08-09T05:48:04.001Z,7188.48
2022-08-09T05:49:04.100Z,7280.64
2022-08-09T05:50:24.021Z,7464.96
2022-08-09T05:51:29.836Z,7833.60
2022-08-09T05:52:05.639Z,8156.16
2022-08-09T05:52:14.286Z,8202.24
2022-08-09T05:53:32.525Z,8386.56
2022-08-09T05:54:15.181Z,8432.64
2022-08-09T05:55:21.032Z,8847.36
2022-08-09T05:56:16.250Z,10690.56
2022-08-09T05:57:17.561Z,12902.40
2022-08-09T05:58:18.315Z,14284.80
2022-08-09T05:59:17.573Z,14469.12
2022-08-09T06:00:19.469Z,14561.28
2022-08-09T06:01:19.169Z,13178.88
2022-08-09T06:02:19.662Z,10874.88
2022-08-09T06:03:20.676Z,10368.00
2022-08-09T06:04:23.286Z,10183.68
2022-08-09T06:05:30.958Z,9953.28
2022-08-09T06:06:21.646Z,9861.12
2022-08-09T06:07:22.257Z,9861.12
2022-08-09T06:08:24.741Z,10091.52
2022-08-09T06:09:53.999Z,10414.08
2022-08-09T06:10:24.364Z,10690.56
2022-08-09T06:11:41.013Z,10828.80
2022-08-09T06:12:26.275Z,10736.64
2022-08-09T06:13:25.468Z,10690.56
2022-08-09T06:14:25.683Z,10598.40
2022-08-09T06:15:27.337Z,10644.48
2022-08-09T06:16:26.459Z,10874.88
2022-08-09T06:17:26.946Z,11980.80
2022-08-09T06:18:27.886Z,13916.16
2022-08-09T06:19:29.779Z,15390.72
2022-08-09T06:20:29.251Z,16404.48
2022-08-09T06:20:38.978Z,16496.64
2022-08-09T06:21:50.268Z,17326.08
2022-08-09T06:22:39.671Z,17971.20
2022-08-09T06:23:55.296Z,18339.84
2022-08-09T06:24:39.919Z,18616.32
2022-08-09T06:25:40.008Z,18800.64
2022-08-09T06:26:40.511Z,18984.96
2022-08-09T06:27:42.217Z,18984.96
2022-08-09T06:28:43.461Z,18892.80
2022-08-09T06:29:58.349Z,18892.80
2022-08-09T06:30:43.356Z,18800.64
2022-08-09T06:32:08.653Z,18708.48
2022-08-09T06:32:53.063Z,18984.96
2022-08-09T06:33:53.111Z,19169.28
2022-08-09T06:34:44.240Z,19261.44
2022-08-09T06:35:57.110Z,19537.92
2022-08-09T06:36:45.289Z,20090.88
2022-08-09T06:37:52.971Z,20459.52
2022-08-09T06:38:49.930Z,20643.84
2022-08-09T06:39:58.347Z,20828.16
2022-08-09T06:40:47.725Z,21012.48
2022-08-09T06:42:08.896Z,21104.64
2022-08-09T06:42:48.527Z,21104.64
2022-08-09T06:43:49.108Z,20459.52
2022-08-09T06:44:51.854Z,18432.00
2022-08-09T06:46:07.092Z,16404.48
2022-08-09T06:46:50.095Z,16404.48
2022-08-09T06:48:00.672Z,16496.64
2022-08-09T06:48:50.502Z,16680.96
2022-08-09T06:50:13.689Z,16865.28
2022-08-09T06:50:13.814Z,16865.28
2022-08-09T06:51:00.274Z,17049.60
2022-08-09T06:52:00.556Z,17141.76
2022-08-09T06:53:01.975Z,17233.92
2022-08-09T06:54:02.322Z,17049.60
2022-08-09T06:55:01.398Z,16957.44
2022-08-09T06:56:01.601Z,16680.96
2022-08-09T06:57:01.818Z,16404.48
2022-08-09T06:58:04.436Z,16128.00
2022-08-09T07:00:50.663Z,16128.00
2022-08-09T07:00:53.059Z,16128.00
2022-08-09T07:01:03.198Z,16035.84
2022-08-09T07:02:04.994Z,15943.68
2022-08-09T07:03:06.160Z,16220.16
2022-08-09T07:04:04.670Z,18155.52
2022-08-09T07:05:05.246Z,20275.20
2022-08-09T07:06:05.850Z,20828.16
2022-08-09T07:07:07.664Z,20736.00
2022-08-09T07:08:06.849Z,20736.00
2022-08-09T07:09:07.498Z,21381.12
2022-08-09T07:10:22.467Z,22118.40
2022-08-09T07:11:08.463Z,22302.72
2022-08-09T07:12:17.552Z,22394.88
2022-08-09T07:13:27.380Z,22763.52
2022-08-09T07:14:09.799Z,23316.48
2022-08-09T07:16:35.098Z,23777.28
2022-08-09T07:16:41.668Z,24330.24
2022-08-09T07:17:12.188Z,24883.20
2022-08-09T07:17:22.340Z,24698.88
2022-08-09T07:18:23.599Z,23224.32
2022-08-09T07:19:23.869Z,20459.52
2022-08-09T07:20:23.721Z,18800.64
2022-08-09T07:21:24.025Z,18892.80
2022-08-09T07:22:34.735Z,19169.28
2022-08-09T07:23:25.325Z,19445.76
2022-08-09T07:24:32.730Z,19906.56
2022-08-09T07:25:26.092Z,20459.52
2022-08-09T07:26:26.937Z,21012.48
2022-08-09T07:27:34.051Z,21473.28
2022-08-09T07:28:28.844Z,21749.76
2022-08-09T07:29:37.750Z,22118.40
2022-08-09T07:30:32.806Z,22394.88
2022-08-09T07:31:29.272Z,22579.20
2022-08-09T07:32:31.984Z,22671.36
2022-08-09T07:33:30.928Z,22579.20
2022-08-09T07:34:31.062Z,22947.84
2022-08-09T07:35:32.056Z,23316.48
2022-08-09T07:36:32.726Z,23500.80
2022-08-09T07:37:44.242Z,23132.16
2022-08-09T07:38:33.525Z,22579.20
2022-08-09T07:39:41.378Z,22579.20
2022-08-09T07:40:54.162Z,22579.20
2022-08-09T07:41:38.834Z,22579.20
2022-08-09T07:42:35.953Z,22394.88
2022-08-09T07:43:41.094Z,22487.04
2022-08-09T07:44:51.996Z,22579.20
2022-08-09T07:45:40.582Z,22763.52
2022-08-09T07:46:38.731Z,22855.68
2022-08-09T07:47:49.257Z,22855.68
2022-08-09T07:48:01.453Z,22947.84
2022-08-09T07:48:52.884Z,23040.00
2022-08-09T07:50:04.572Z,23132.16
2022-08-09T07:50:53.114Z,23040.00
2022-08-09T07:52:04.564Z,22947.84
2022-08-09T07:52:50.949Z,23040.00
2022-08-09T07:54:07.711Z,23408.64
2022-08-09T07:54:51.962Z,23592.96
2022-08-09T07:56:03.341Z,23592.96
2022-08-09T07:56:53.352Z,23592.96
2022-08-09T07:57:54.339Z,23592.96
2022-08-09T07:58:54.781Z,23961.60
2022-08-09T08:00:02.880Z,24330.24
2022-08-09T08:01:06.426Z,24514.56
2022-08-09T08:01:56.784Z,24514.56
2022-08-09T08:02:57.549Z,24698.88
2022-08-09T08:03:57.531Z,25067.52
2022-08-09T08:04:58.034Z,25436.16
2022-08-09T08:05:58.972Z,25804.80
2022-08-09T08:07:00.082Z,26173.44
2022-08-09T08:08:43.575Z,26357.76
2022-08-09T08:09:07.771Z,26542.08
2022-08-09T08:10:07.938Z,27095.04
2022-08-09T08:11:03.357Z,27832.32
2022-08-09T08:12:11.149Z,28200.96
2022-08-09T08:13:03.855Z,28385.28
2022-08-09T08:14:04.754Z,28385.28
2022-08-09T08:15:03.637Z,28385.28
2022-08-09T08:16:03.896Z,28753.92
2022-08-09T08:17:08.672Z,29306.88
2022-08-09T08:18:05.357Z,29491.20
2022-08-09T08:18:16.614Z,29491.20
2022-08-09T08:19:17.508Z,29675.52
2022-08-09T08:20:17.381Z,30044.16
2022-08-09T08:21:18.138Z,30412.80
2022-08-09T08:22:18.710Z,30781.44
2022-08-09T08:23:19.105Z,31150.08
2022-08-09T08:24:19.965Z,31518.72
2022-08-09T08:25:20.199Z,32071.68
2022-08-09T08:26:41.676Z,32624.64
2022-08-09T08:27:21.325Z,32993.28
2022-08-09T08:28:31.803Z,33730.56
2022-08-09T08:29:28.206Z,34099.20
2022-08-09T08:30:22.492Z,34283.52
2022-08-09T08:31:24.566Z,34836.48
2022-08-09T08:32:29.179Z,35573.76
2022-08-09T08:33:24.239Z,36126.72
2022-08-09T08:34:25.657Z,36679.68
2022-08-09T08:35:23.913Z,36864.00
2022-08-09T08:36:29.276Z,37232.64
2022-08-09T08:37:25.659Z,37416.96
2022-08-09T08:38:25.807Z,37416.96
2022-08-09T08:39:26.663Z,37601.28
2022-08-09T08:40:29.641Z,37785.60
2022-08-09T08:41:50.557Z,37969.92
2022-08-09T08:42:32.055Z,37969.92
2022-08-09T08:43:29.006Z,37969.92
2022-08-09T08:44:29.861Z,37969.92
2022-08-09T08:45:36.827Z,38338.56
2022-08-09T08:46:33.634Z,38707.20
2022-08-09T08:47:32.089Z,39075.84
2022-08-09T08:47:42.614Z,39260.16
2022-08-09T08:48:51.533Z,39628.80
2022-08-09T08:49:48.501Z,40181.76
2022-08-09T08:50:42.056Z,40366.08
2022-08-09T08:52:01.936Z,40550.40
2022-08-09T08:53:00.452Z,40734.72
2022-08-09T08:54:03.304Z,41103.36
2022-08-09T08:54:43.550Z,41287.68
2022-08-09T08:55:44.414Z,41287.68
2022-08-09T08:56:45.991Z,41103.36
2022-08-09T08:57:57.189Z,41287.68
2022-08-09T08:58:46.633Z,41656.32
2022-08-09T08:59:47.308Z,41840.64
2022-08-09T09:00:46.553Z,42024.96
2022-08-09T09:01:52.227Z,42393.60
2022-08-09T09:02:52.393Z,42393.60
2022-08-09T09:03:50.392Z,42577.92
2022-08-09T09:04:53.033Z,42577.92
2022-08-09T09:05:59.089Z,42024.96
2022-08-09T09:06:50.660Z,41840.64
2022-08-09T09:07:51.505Z,41656.32
2022-08-09T09:08:02.784Z,41656.32
2022-08-09T09:09:06.712Z,41656.32
2022-08-09T09:10:04.925Z,42209.28
2022-08-09T09:11:04.409Z,42577.92
2022-08-09T09:12:08.862Z,42946.56
2022-08-09T09:13:09.533Z,43315.20
2022-08-09T09:14:05.779Z,43499.52
2022-08-09T09:15:06.427Z,43683.84
2022-08-09T09:16:07.043Z,43868.16
2022-08-09T09:17:06.034Z,43868.16
2022-08-09T09:18:06.948Z,44052.48
2022-08-09T09:19:39.632Z,44236.80
2022-08-09T09:21:53.816Z,44605.44
2022-08-09T09:22:54.492Z,44789.76
2022-08-09T09:23:58.433Z,44974.08
2022-08-09T09:26:01.105Z,45711.36
2022-08-09T09:26:02.377Z,45527.04
2022-08-09T09:26:57.145Z,46264.32
2022-08-09T09:28:05.361Z,46448.64
2022-08-09T09:29:03.702Z,46448.64
2022-08-09T09:30:11.968Z,46264.32
2022-08-09T09:30:58.284Z,46264.32
2022-08-09T09:32:04.645Z,46080.00
2022-08-09T09:32:58.678Z,45711.36
2022-08-09T09:33:59.224Z,9400.32
2022-08-09T09:35:00.453Z,46080.00
2022-08-09T09:36:01.948Z,18616.32
2022-08-09T09:36:59.714Z,47185.92
2022-08-09T09:37:08.857Z,47185.92
2022-08-09T09:38:08.793Z,47554.56
2022-08-09T09:39:09.975Z,47554.56
2022-08-09T09:40:10.044Z,47554.56
2022-08-09T09:41:10.801Z,47185.92
2022-08-09T09:42:10.950Z,47001.60
2022-08-09T09:43:11.106Z,46632.96
2022-08-09T09:44:15.479Z,7925.76
2022-08-09T09:45:14.391Z,47185.92
2022-08-09T09:47:12.509Z,48291.84
2022-08-09T09:48:12.597Z,49029.12
2022-08-09T09:49:12.732Z,49397.76
2022-08-09T09:50:17.293Z,49766.40
2022-08-09T09:51:18.834Z,49766.40
2022-08-09T09:52:35.676Z,49397.76
2022-08-09T09:53:14.344Z,49029.12
2022-08-09T09:54:42.459Z,48660.48
2022-08-09T09:55:43.093Z,48660.48
2022-08-09T09:56:53.366Z,49029.12
2022-08-09T09:58:01.333Z,49397.76
2022-08-09T09:58:45.033Z,50503.68
2022-08-09T09:59:45.578Z,50503.68
2022-08-09T10:00:53.012Z,51609.60
2022-08-09T10:01:47.371Z,52346.88
2022-08-09T10:02:46.150Z,52715.52
2022-08-09T10:03:56.275Z,53452.80
2022-08-09T10:04:47.646Z,53821.44
2022-08-09T10:06:03.647Z,53821.44
2022-08-09T10:06:51.785Z,53452.80
2022-08-09T10:08:11.088Z,53084.16
2022-08-09T10:08:57.235Z,52346.88
2022-08-09T10:09:55.054Z,51978.24
2022-08-09T10:10:50.542Z,51609.60
2022-08-09T10:12:07.701Z,51978.24
2022-08-09T10:12:52.061Z,52346.88
2022-08-09T10:13:51.744Z,52346.88
2022-08-09T10:14:52.468Z,53084.16
2022-08-09T10:16:54.643Z,53821.44
2022-08-09T10:16:57.835Z,54190.08
2022-08-09T10:17:56.582Z,54558.72
2022-08-09T10:18:54.718Z,54927.36
2022-08-09T10:19:57.090Z,54558.72
2022-08-09T10:20:57.118Z,54558.72
2022-08-09T10:21:57.930Z,54190.08
2022-08-09T10:22:07.597Z,54190.08
2022-08-09T10:23:08.297Z,54190.08
2022-08-09T10:24:08.895Z,53821.44
2022-08-09T10:25:12.419Z,53821.44
2022-08-09T10:26:10.552Z,53452.80
2022-08-09T10:27:17.253Z,53452.80
2022-08-09T10:28:11.089Z,53084.16
2022-08-09T10:29:35.974Z,53084.16
2022-08-09T10:31:31.720Z,53452.80
2022-08-09T10:32:38.043Z,53821.44
2022-08-09T10:33:44.845Z,53821.44
2022-08-09T10:34:32.902Z,53821.44
2022-08-09T10:35:14.693Z,54190.08
2022-08-09T10:36:15.446Z,54558.72
2022-08-09T10:37:15.451Z,54558.72
2022-08-09T10:38:54.261Z,54190.08
2022-08-09T10:39:19.162Z,54190.08
2022-08-09T10:40:34.704Z,54190.08
2022-08-09T10:41:17.819Z,54190.08
2022-08-09T10:42:53.382Z,53821.44
2022-08-09T10:43:59.211Z,53821.44
2022-08-09T10:44:53.946Z,53452.80
2022-08-09T10:45:59.859Z,53452.80
2022-08-09T10:47:00.527Z,53821.44
2022-08-09T10:48:26.292Z,53821.44
2022-08-09T10:48:56.097Z,53821.44
2022-08-09T10:49:57.200Z,54190.08
2022-08-09T10:50:56.532Z,54558.72
2022-08-09T10:51:57.368Z,54558.72
2022-08-09T10:52:58.231Z,54558.72
2022-08-09T10:53:58.307Z,54558.72
2022-08-09T10:54:59.171Z,54558.72
2022-08-09T10:56:00.183Z,54558.72
2022-08-09T10:56:59.994Z,54190.08
2022-08-09T10:58:00.737Z,53821.44
2022-08-09T10:58:16.787Z,53821.44
2022-08-09T10:59:12.533Z,54190.08
2022-08-09T11:00:12.702Z,54190.08
2022-08-09T11:03:13.711Z,54190.08
2022-08-09T11:03:15.188Z,54558.72
2022-08-09T11:03:51.203Z,54927.36
2022-08-09T11:04:27.817Z,54927.36
2022-08-09T11:05:25.499Z,54927.36
2022-08-09T11:06:17.742Z,54927.36
2022-08-09T11:07:19.596Z,54927.36
2022-08-09T11:08:30.238Z,54558.72
2022-08-09T11:09:20.965Z,54558.72
2022-08-09T11:10:19.995Z,54927.36
2022-08-09T11:11:20.613Z,54558.72
2022-08-09T11:12:20.806Z,54558.72
2022-08-09T11:13:51.106Z,54927.36
2022-08-09T11:14:28.276Z,54558.72
2022-08-09T11:15:24.031Z,54927.36
2022-08-09T11:16:04.892Z,54927.36
2022-08-09T11:16:40.865Z,54558.72
2022-08-09T11:17:41.959Z,55296.00
2022-08-09T11:18:41.085Z,55296.00
2022-08-09T11:20:11.022Z,55296.00
2022-08-09T11:20:43.519Z,54927.36
2022-08-09T11:21:43.335Z,54927.36
2022-08-09T11:22:44.738Z,54558.72
2022-08-09T11:23:47.529Z,54190.08
2022-08-09T11:24:45.063Z,53452.80
2022-08-09T11:25:48.488Z,53452.80
2022-08-09T11:26:47.425Z,53452.80
2022-08-09T11:28:04.399Z,54190.08
2022-08-09T11:28:56.499Z,54190.08
2022-08-09T11:30:05.097Z,55296.00
2022-08-09T11:30:48.000Z,55664.64
2022-08-09T11:31:49.213Z,55664.64
2022-08-09T11:32:48.593Z,56033.28
2022-08-09T11:33:50.262Z,56033.28
2022-08-09T11:34:02.290Z,56033.28
2022-08-09T11:35:03.144Z,56401.92
2022-08-09T11:36:04.951Z,56033.28
2022-08-09T11:37:07.213Z,54927.36
2022-08-09T11:38:04.585Z,57139.20
2022-08-09T11:39:04.622Z,57139.20
2022-08-09T11:40:04.811Z,57139.20
2022-08-09T11:41:05.410Z,56770.56
2022-08-09T11:42:07.377Z,56770.56
2022-08-09T11:43:07.138Z,56770.56
2022-08-09T11:44:07.536Z,57139.20
2022-08-09T11:45:08.384Z,57139.20
2022-08-09T11:46:09.704Z,57139.20
2022-08-09T11:47:10.964Z,56770.56
2022-08-09T11:48:17.487Z,57139.20
2022-08-09T11:49:10.083Z,57507.84
2022-08-09T11:50:56.141Z,57507.84
2022-08-09T11:52:56.991Z,57876.48
2022-08-09T11:53:04.280Z,57876.48
2022-08-09T11:53:57.732Z,57876.48
2022-08-09T11:54:13.697Z,57507.84
2022-08-09T11:55:12.952Z,58245.12
2022-08-09T11:56:14.167Z,58245.12
2022-08-09T11:57:13.693Z,57507.84
2022-08-09T11:58:14.080Z,57139.20
2022-08-09T11:58:32.973Z,57507.84
2022-08-09T11:59:30.594Z,57507.84
2022-08-09T12:00:29.818Z,57507.84
2022-08-09T12:01:37.680Z,57139.20
2022-08-09T12:02:36.980Z,56770.56
2022-08-09T12:03:55.909Z,56770.56
2022-08-09T12:04:37.626Z,57139.20
2022-08-09T12:05:37.131Z,56770.56
2022-08-09T12:06:34.890Z,56770.56